Darstellungsparameter: Aktuell verwendete Einstellungen:
Skalierung der Graphiken ... ?
xyx+y,   Skalierungsfaktor:      Skalierung: Modus: x, Faktor: 1
Darstellungszeitraum ... ?
Vom - - bis: - -   Zeitraum: 04.12.2008 - 04.12.2008
Min/Max/Avg-Anzeige ... ?
Zeige MMA aktuell
Zeige MMA Monat
Zeige MMA alles
Zeige --A aktuell
Zeige --A Monat
Zeige --A alles
Keine MMA-Anzeige
MMA:
Keine MMA-Graphiken
MMA-Basis: 04.12.2008 - 04.12.2008
Quicknavigation für Darstellung... ?
Tage:      1T, 2T, 3T, 5T -1T -2T -3T -5T +1T +2T +3T +5T
Wochen: 1W, 2W, 3W -1W -2W -3W +1W +2W +3W
Monate: 1M, 3M, 6M -1M -3M -6M +1M +3M +6M
Jahre:    1J, 3J, 5J, 10J -1J -3J -5J -10J +1J +3J +5J +10J
Nutze für die Darstellung ... ?
Originaldaten oder Mittelwerte auf ...
Stundenbasis Tagesbasis Wochenbasis
Monatsbasis Jahresbasis      Datenbasis: Original-Daten
Darstellen als:
Statistik (Auto) Statistik J:M      Darstellung:
Zur Graphik,    zurück zur Übersicht aller Sensoren.
 
Tabellarische Datenbersicht: ?
 
Sensor: Nr:Datum:Temp:Abs-Feuchte:Windchill:Wind:
Aussen-T/F 1 04-12-2008 00:11:02 0.2 C 4.62 g/m*3 0.2 C 0 km/h
2 04-12-2008 00:23:02 0.1 C 4.59 g/m*3 0.1 C 0 km/h
3 04-12-2008 00:35:02 -0.2 C 4.44 g/m*3 -0.2 C 0 km/h
4 04-12-2008 00:47:02 -0.1 C 4.47 g/m*3 -0.1 C 0 km/h
5 04-12-2008 00:59:02 -0.2 C 4.44 g/m*3 -0.2 C 0 km/h
6 04-12-2008 01:11:02 -0.3 C 4.41 g/m*3 -0.3 C 0 km/h
7 04-12-2008 01:23:02 -0.2 C 4.44 g/m*3 -0.2 C 0 km/h
8 04-12-2008 01:35:02 -0.4 C 4.34 g/m*3 -0.4 C 0 km/h
9 04-12-2008 01:47:02 -0.4 C 4.34 g/m*3 -0.4 C 0 km/h
10 04-12-2008 01:59:02 -0.3 C 4.37 g/m*3 -0.3 C 0 km/h
11 04-12-2008 02:11:02 -0.4 C 4.29 g/m*3 -0.4 C 0 km/h
12 04-12-2008 02:23:02 -0.5 C 4.26 g/m*3 -0.5 C 0 km/h
13 04-12-2008 02:35:02 -0.5 C 4.26 g/m*3 -0.5 C 0 km/h
14 04-12-2008 02:47:02 -0.5 C 4.21 g/m*3 -0.5 C 0 km/h
15 04-12-2008 02:59:02 -0.5 C 4.21 g/m*3 -0.5 C 0 km/h
16 04-12-2008 03:11:03 -0.3 C 4.27 g/m*3 -0.3 C 0 km/h
17 04-12-2008 03:23:03 -0.3 C 4.22 g/m*3 -0.3 C 0 km/h
18 04-12-2008 03:35:03 -0.3 C 4.22 g/m*3 -0.3 C 0 km/h
19 04-12-2008 03:47:03 -0.3 C 4.22 g/m*3 -0.3 C 0 km/h
20 04-12-2008 03:59:03 -0.4 C 4.15 g/m*3 -0.4 C 0 km/h
21 04-12-2008 04:11:03 -0.6 C 4.09 g/m*3 -0.6 C 0 km/h
22 04-12-2008 04:23:03 -0.7 C 4.02 g/m*3 -0.7 C 0 km/h
23 04-12-2008 04:35:03 -0.9 C 3.96 g/m*3 -0.9 C 0 km/h
24 04-12-2008 04:47:03 -1 C 3.93 g/m*3 -1 C 0 km/h
25 04-12-2008 04:59:03 -1.1 C 3.91 g/m*3 -1.1 C 0 km/h
Sensor: Nr:Datum:Temp:Abs-Feuchte:Windchill:Wind:
Aussen-T/F 26 04-12-2008 05:11:03 -0.9 C 3.96 g/m*3 -0.9 C 0 km/h
27 04-12-2008 05:23:03 -0.9 C 3.96 g/m*3 -0.9 C 0 km/h
28 04-12-2008 05:35:03 -0.8 C 3.99 g/m*3 -0.8 C 0 km/h
29 04-12-2008 05:47:03 -0.8 C 3.99 g/m*3 -0.8 C 0 km/h
30 04-12-2008 05:59:03 -0.8 C 4.03 g/m*3 -0.8 C 0 km/h
31 04-12-2008 06:11:03 -0.6 C 4.09 g/m*3 -0.6 C 0 km/h
32 04-12-2008 06:23:03 -0.6 C 4.09 g/m*3 -0.6 C 0 km/h
33 04-12-2008 06:35:03 -0.5 C 4.12 g/m*3 -0.5 C 0 km/h
34 04-12-2008 06:47:03 -0.4 C 4.15 g/m*3 -0.4 C 0 km/h
35 04-12-2008 06:59:03 -0.4 C 4.15 g/m*3 -0.4 C 0 km/h
36 04-12-2008 07:11:01 -0.4 C 4.15 g/m*3 -0.4 C 0 km/h
37 04-12-2008 07:23:02 -0.3 C 4.18 g/m*3 -0.3 C 0 km/h
38 04-12-2008 07:35:01 -0.3 C 4.13 g/m*3 -0.3 C 0 km/h
39 04-12-2008 07:47:01 -0.3 C 4.13 g/m*3 -0.3 C 0 km/h
40 04-12-2008 07:59:01 -0.3 C 4.13 g/m*3 -0.3 C 0 km/h
41 04-12-2008 08:11:02 -0.3 C 4.13 g/m*3 -0.3 C 0 km/h
42 04-12-2008 08:23:01 -0.3 C 4.13 g/m*3 -0.3 C 0 km/h
43 04-12-2008 08:35:02 -0.3 C 4.13 g/m*3 -0.3 C 0 km/h
44 04-12-2008 08:47:02 -0.4 C 4.1 g/m*3 -0.4 C 0 km/h
45 04-12-2008 08:59:03 -0.3 C 4.18 g/m*3 -0.3 C 0 km/h
46 04-12-2008 09:11:02 -0.1 C 4.23 g/m*3 -0.1 C 0 km/h
47 04-12-2008 09:23:02 0.1 C 4.29 g/m*3 0.1 C 0 km/h
48 04-12-2008 09:35:02 0.3 C 4.35 g/m*3 0.3 C 0 km/h
49 04-12-2008 09:47:02 0.6 C 4.49 g/m*3 0.6 C 0 km/h
50 04-12-2008 09:59:02 0.8 C 4.56 g/m*3 0.8 C 0 km/h
Sensor: Nr:Datum:Temp:Abs-Feuchte:Windchill:Wind:
Aussen-T/F 51 04-12-2008 10:11:02 1 C 4.57 g/m*3 1 C 0 km/h
52 04-12-2008 10:23:02 1.2 C 4.63 g/m*3 1.2 C 0 km/h
53 04-12-2008 10:35:02 1.2 C 4.68 g/m*3 1.2 C 0 km/h
54 04-12-2008 10:47:02 1.5 C 4.78 g/m*3 1.5 C 0 km/h
55 04-12-2008 10:59:02 1.9 C 4.91 g/m*3 1.9 C 0 km/h
56 04-12-2008 11:11:02 2.3 C 5.05 g/m*3 2.3 C 0 km/h
57 04-12-2008 11:23:02 2.8 C 5.22 g/m*3 2.8 C 0 km/h
58 04-12-2008 11:35:02 2.8 C 5.16 g/m*3 2.8 C 0 km/h
59 04-12-2008 11:47:02 2.9 C 5.26 g/m*3 2.9 C 0 km/h
60 04-12-2008 11:59:02 3.1 C 5.33 g/m*3 3.1 C 0 km/h
61 04-12-2008 12:11:02 3.4 C 5.5 g/m*3 3.4 C 0 km/h
62 04-12-2008 12:23:02 3.6 C 5.63 g/m*3 3.6 C 0 km/h
63 04-12-2008 12:35:02 3.7 C 5.67 g/m*3 3.7 C 0 km/h
64 04-12-2008 12:47:02 3.7 C 5.67 g/m*3 3.7 C 0 km/h
65 04-12-2008 12:59:02 3.5 C 5.6 g/m*3 3.5 C 0 km/h
66 04-12-2008 13:11:03 3.1 C 5.45 g/m*3 3.1 C 0 km/h
67 04-12-2008 13:23:02 3.1 C 5.51 g/m*3 3.1 C 0 km/h
68 04-12-2008 13:35:03 3.1 C 5.57 g/m*3 3.1 C 0 km/h
69 04-12-2008 13:47:02 3.1 C 5.57 g/m*3 3.1 C 0 km/h
70 04-12-2008 13:59:02 3.1 C 5.57 g/m*3 3.1 C 0 km/h
71 04-12-2008 14:11:02 3.2 C 5.66 g/m*3 3.2 C 0 km/h
72 04-12-2008 14:23:02 3.2 C 5.66 g/m*3 3.2 C 0 km/h
73 04-12-2008 14:35:02 3.5 C 5.78 g/m*3 3.5 C 0 km/h
74 04-12-2008 14:47:02 3.5 C 5.78 g/m*3 3.5 C 0 km/h
75 04-12-2008 14:59:03 3.5 C 5.72 g/m*3 3.5 C 0 km/h
Sensor: Nr:Datum:Temp:Abs-Feuchte:Windchill:Wind:
Aussen-T/F 76 04-12-2008 15:11:01 3.6 C 5.76 g/m*3 3.6 C 0 km/h
77 04-12-2008 15:23:02 3.5 C 5.66 g/m*3 3.5 C 0 km/h
78 04-12-2008 15:35:01 3.5 C 5.66 g/m*3 3.5 C 0 km/h
79 04-12-2008 15:47:03 3.5 C 5.66 g/m*3 3.5 C 0 km/h
80 04-12-2008 15:59:03 3.5 C 5.66 g/m*3 3.5 C 0 km/h
81 04-12-2008 16:11:02 3.6 C 5.69 g/m*3 3.6 C 0 km/h
82 04-12-2008 16:23:03 3.5 C 5.72 g/m*3 3.5 C 0 km/h
83 04-12-2008 16:35:02 3.6 C 5.76 g/m*3 3.6 C 0 km/h
84 04-12-2008 16:47:03 3.5 C 5.78 g/m*3 3.5 C 0 km/h
85 04-12-2008 16:59:03 3.6 C 5.82 g/m*3 3.6 C 0 km/h
86 04-12-2008 17:11:02 3.6 C 5.82 g/m*3 3.6 C 0 km/h
87 04-12-2008 17:23:03 3.6 C 5.82 g/m*3 3.6 C 0 km/h
88 04-12-2008 17:35:02 3.5 C 5.78 g/m*3 3.5 C 0 km/h
89 04-12-2008 17:47:01 3.6 C 5.82 g/m*3 3.6 C 0 km/h
90 04-12-2008 17:59:01 3.5 C 5.78 g/m*3 3.5 C 0 km/h
91 04-12-2008 18:11:01 3.5 C 5.78 g/m*3 3.5 C 0 km/h
92 04-12-2008 18:23:01 3.6 C 5.88 g/m*3 3.6 C 0 km/h
93 04-12-2008 18:35:01 3.6 C 5.88 g/m*3 3.6 C 0 km/h
94 04-12-2008 18:47:02 3.7 C 5.92 g/m*3 3.7 C 0 km/h
95 04-12-2008 18:59:02 3.7 C 5.92 g/m*3 3.7 C 0 km/h
96 04-12-2008 19:11:02 3.8 C 5.96 g/m*3 3.8 C 0 km/h
97 04-12-2008 19:23:02 3.8 C 5.96 g/m*3 3.8 C 0 km/h
98 04-12-2008 19:35:02 3.9 C 5.94 g/m*3 3.9 C 0 km/h
99 04-12-2008 19:47:02 4.1 C 6.02 g/m*3 4.1 C 0 km/h
100 04-12-2008 19:59:02 4.1 C 6.02 g/m*3 4.1 C 0 km/h
Sensor: Nr:Datum:Temp:Abs-Feuchte:Windchill:Wind:
Aussen-T/F 101 04-12-2008 20:11:02 4 C 5.98 g/m*3 4 C 0 km/h
102 04-12-2008 20:23:02 4 C 5.98 g/m*3 4 C 0 km/h
103 04-12-2008 20:35:02 4.1 C 6.02 g/m*3 4.1 C 0 km/h
104 04-12-2008 20:47:02 4.1 C 6.02 g/m*3 4.1 C 0 km/h
105 04-12-2008 20:59:02 4.2 C 6.06 g/m*3 4.2 C 0 km/h
106 04-12-2008 21:11:02 4.3 C 6.16 g/m*3 4.3 C 0 km/h
107 04-12-2008 21:23:02 4.2 C 6.12 g/m*3 4.2 C 0 km/h
108 04-12-2008 21:35:02 4.3 C 6.16 g/m*3 4.3 C 0 km/h
109 04-12-2008 21:47:02 4.4 C 6.2 g/m*3 4.4 C 0 km/h
110 04-12-2008 21:59:02 4.4 C 6.2 g/m*3 4.4 C 0 km/h
111 04-12-2008 22:12:03 4.6 C 6.29 g/m*3 4.6 C 0 km/h
112 04-12-2008 22:24:03 4.7 C 6.33 g/m*3 4.7 C 0 km/h
113 04-12-2008 22:36:03 4.8 C 6.37 g/m*3 4.8 C 0 km/h
114 04-12-2008 22:48:03 4.5 C 6.18 g/m*3 4.5 C 0 km/h
115 04-12-2008 23:00:03 4.6 C 6.22 g/m*3 4.6 C 0 km/h
116 04-12-2008 23:12:03 5 C 6.39 g/m*3 5 C 0 km/h
117 04-12-2008 23:24:03 5 C 6.39 g/m*3 5 C 0 km/h
118 04-12-2008 23:36:04 5 C 6.32 g/m*3 5 C 0 km/h
119 04-12-2008 23:48:04 5 C 6.32 g/m*3 5 C 0 km/h

Legende:
   Min
   Max


Maximal/Minimal-Werte vom 04.12.2008 - 04.12.2008

Sensor Min Max Avg
Temp
(Aussen-T/F)
-1.1 °C
04-12-2008  04:59:03
5 °C
04-12-2008  23:12:03
1.92 °C
Abs-Feuchte
(Aussen-T/F)
3.91 g/m*3
04-12-2008  04:59:03
6.39 g/m*3
04-12-2008  23:12:03
5.06 g/m*3
Windchill
(Aussen-T/F)
-1.1 C
04-12-2008  04:59:03
5 C
04-12-2008  23:12:03
1.91 C

Die Daten stammen von einer Davis Vantage Pro 2 Wetter-Station und werden unter Linux mit der Software wview2wettercgi und aufbereitet. Alle Angaben erfolgen ohne Gewähr für ihre Vollständigkeit oder Richtigkeit.
Kontakt: Rainer Krienke krienke@uni-koblenz.de . Meine Webseiten an der Uni Koblenz oder privat.
Version: $Revision: 0.78 $